Terminal Aerodrome Forecast
Issued by NWS Lake Charles, LA

Home | Current Version | Previous Version | Text Only | Print | Product List | Glossary On
Versions: 1 2 3 4 5 6 7 8 9 10 11 12 13 14 15 16 17 18
000
FTUS44 KLCH 291720
TAFARA
TAF
KARA 291720Z 2918/3018 16016G24KT P6SM SCT025
     FM300100 16011G17KT P6SM VCSH BKN020
     FM300900 16009G16KT P6SM SHRA SCT009 OVC015=

USA.gov is the U.S. government's official web portal to all federal, state and local government web resources and services.